sensor_id;sensor_type;location;lat;lon;timestamp;P1;durP1;ratioP1;P2;durP2;ratioP2
65033;SDS011;51601;51.356;12.458;2023-06-14T00:00:35;8.68;;;2.97;;
65033;SDS011;51601;51.356;12.458;2023-06-14T00:05:11;8.00;;;3.40;;
65033;SDS011;51601;51.356;12.458;2023-06-14T00:09:48;7.50;;;3.20;;
65033;SDS011;51601;51.356;12.458;2023-06-14T00:14:22;6.30;;;3.03;;
65033;SDS011;51601;51.356;12.458;2023-06-14T00:18:57;6.65;;;3.35;;
65033;SDS011;51601;51.356;12.458;2023-06-14T00:23:31;5.90;;;3.10;;
65033;SDS011;51601;51.356;12.458;2023-06-14T00:28:06;8.52;;;3.63;;
65033;SDS011;51601;51.356;12.458;2023-06-14T00:32:40;6.32;;;3.40;;
65033;SDS011;51601;51.356;12.458;2023-06-14T00:37:15;6.50;;;3.50;;
65033;SDS011;51601;51.356;12.458;2023-06-14T00:41:49;8.60;;;3.70;;
65033;SDS011;51601;51.356;12.458;2023-06-14T00:46:26;6.15;;;3.50;;
65033;SDS011;51601;51.356;12.458;2023-06-14T00:51:00;6.65;;;3.60;;
65033;SDS011;51601;51.356;12.458;2023-06-14T00:55:37;6.93;;;3.77;;
65033;SDS011;51601;51.356;12.458;2023-06-14T01:00:11;7.20;;;3.97;;
65033;SDS011;51601;51.356;12.458;2023-06-14T01:04:49;8.20;;;3.92;;
65033;SDS011;51601;51.356;12.458;2023-06-14T01:09:27;7.63;;;3.90;;
65033;SDS011;51601;51.356;12.458;2023-06-14T01:14:06;10.02;;;4.05;;
65033;SDS011;51601;51.356;12.458;2023-06-14T01:18:41;8.95;;;4.28;;
65033;SDS011;51601;51.356;12.458;2023-06-14T01:23:22;8.27;;;4.03;;
65033;SDS011;51601;51.356;12.458;2023-06-14T01:27:58;9.53;;;4.17;;
65033;SDS011;51601;51.356;12.458;2023-06-14T01:32:35;8.10;;;3.97;;
65033;SDS011;51601;51.356;12.458;2023-06-14T01:37:10;8.57;;;4.00;;
65033;SDS011;51601;51.356;12.458;2023-06-14T01:41:46;7.30;;;4.10;;
65033;SDS011;51601;51.356;12.458;2023-06-14T01:46:23;7.28;;;4.10;;
65033;SDS011;51601;51.356;12.458;2023-06-14T01:50:59;7.85;;;4.10;;
65033;SDS011;51601;51.356;12.458;2023-06-14T01:55:33;8.83;;;4.00;;
65033;SDS011;51601;51.356;12.458;2023-06-14T02:00:13;10.68;;;3.65;;
65033;SDS011;51601;51.356;12.458;2023-06-14T02:04:50;6.93;;;3.78;;
65033;SDS011;51601;51.356;12.458;2023-06-14T02:09:24;7.05;;;3.50;;
65033;SDS011;51601;51.356;12.458;2023-06-14T02:13:59;8.03;;;3.70;;
65033;SDS011;51601;51.356;12.458;2023-06-14T02:18:35;8.32;;;3.80;;
65033;SDS011;51601;51.356;12.458;2023-06-14T02:23:10;6.97;;;3.60;;
65033;SDS011;51601;51.356;12.458;2023-06-14T02:27:44;7.90;;;3.73;;
65033;SDS011;51601;51.356;12.458;2023-06-14T02:32:18;8.13;;;3.88;;
65033;SDS011;51601;51.356;12.458;2023-06-14T02:36:54;8.70;;;4.10;;
65033;SDS011;51601;51.356;12.458;2023-06-14T02:41:28;8.23;;;3.83;;
65033;SDS011;51601;51.356;12.458;2023-06-14T02:46:02;7.68;;;4.03;;
65033;SDS011;51601;51.356;12.458;2023-06-14T02:50:36;10.45;;;3.97;;
65033;SDS011;51601;51.356;12.458;2023-06-14T02:55:12;7.65;;;4.25;;
65033;SDS011;51601;51.356;12.458;2023-06-14T02:59:47;7.07;;;3.67;;
65033;SDS011;51601;51.356;12.458;2023-06-14T03:04:21;9.13;;;4.10;;
65033;SDS011;51601;51.356;12.458;2023-06-14T03:08:58;7.15;;;3.70;;
65033;SDS011;51601;51.356;12.458;2023-06-14T03:13:40;7.23;;;3.60;;
65033;SDS011;51601;51.356;12.458;2023-06-14T03:18:16;7.80;;;3.63;;
65033;SDS011;51601;51.356;12.458;2023-06-14T03:22:51;7.50;;;3.88;;
65033;SDS011;51601;51.356;12.458;2023-06-14T03:27:26;7.17;;;3.80;;
65033;SDS011;51601;51.356;12.458;2023-06-14T03:32:04;7.30;;;3.53;;
65033;SDS011;51601;51.356;12.458;2023-06-14T03:36:44;7.28;;;3.72;;
65033;SDS011;51601;51.356;12.458;2023-06-14T03:41:19;10.00;;;3.83;;
65033;SDS011;51601;51.356;12.458;2023-06-14T03:45:55;6.83;;;3.47;;
65033;SDS011;51601;51.356;12.458;2023-06-14T03:50:32;6.57;;;3.75;;
65033;SDS011;51601;51.356;12.458;2023-06-14T03:55:06;8.80;;;3.65;;
65033;SDS011;51601;51.356;12.458;2023-06-14T03:59:43;6.93;;;3.70;;
65033;SDS011;51601;51.356;12.458;2023-06-14T04:04:19;8.05;;;3.80;;
65033;SDS011;51601;51.356;12.458;2023-06-14T04:08:55;7.32;;;3.80;;
65033;SDS011;51601;51.356;12.458;2023-06-14T04:13:29;7.60;;;3.60;;
65033;SDS011;51601;51.356;12.458;2023-06-14T04:18:04;7.70;;;4.22;;
65033;SDS011;51601;51.356;12.458;2023-06-14T04:22:38;8.27;;;4.05;;
65033;SDS011;51601;51.356;12.458;2023-06-14T04:27:14;6.80;;;3.92;;
65033;SDS011;51601;51.356;12.458;2023-06-14T04:31:54;9.87;;;3.80;;
65033;SDS011;51601;51.356;12.458;2023-06-14T04:36:31;7.85;;;3.80;;
65033;SDS011;51601;51.356;12.458;2023-06-14T04:41:07;7.28;;;3.83;;
65033;SDS011;51601;51.356;12.458;2023-06-14T04:45:46;8.57;;;4.17;;
65033;SDS011;51601;51.356;12.458;2023-06-14T04:50:22;7.43;;;3.80;;
65033;SDS011;51601;51.356;12.458;2023-06-14T04:54:56;10.02;;;4.30;;
65033;SDS011;51601;51.356;12.458;2023-06-14T04:59:32;7.33;;;4.43;;
65033;SDS011;51601;51.356;12.458;2023-06-14T05:04:09;6.43;;;4.13;;
65033;SDS011;51601;51.356;12.458;2023-06-14T05:08:43;8.98;;;4.68;;
65033;SDS011;51601;51.356;12.458;2023-06-14T05:13:18;8.85;;;4.38;;
65033;SDS011;51601;51.356;12.458;2023-06-14T05:17:55;6.83;;;4.30;;
65033;SDS011;51601;51.356;12.458;2023-06-14T05:22:30;8.73;;;4.18;;
65033;SDS011;51601;51.356;12.458;2023-06-14T05:27:04;8.02;;;5.18;;
65033;SDS011;51601;51.356;12.458;2023-06-14T05:31:39;7.70;;;4.73;;
65033;SDS011;51601;51.356;12.458;2023-06-14T05:36:13;8.68;;;5.00;;
65033;SDS011;51601;51.356;12.458;2023-06-14T05:40:49;7.95;;;4.72;;
65033;SDS011;51601;51.356;12.458;2023-06-14T05:45:23;7.60;;;5.00;;
65033;SDS011;51601;51.356;12.458;2023-06-14T05:49:57;9.35;;;5.00;;
65033;SDS011;51601;51.356;12.458;2023-06-14T05:54:31;9.05;;;4.90;;
65033;SDS011;51601;51.356;12.458;2023-06-14T05:59:07;10.75;;;5.35;;
65033;SDS011;51601;51.356;12.458;2023-06-14T06:03:41;7.90;;;4.90;;
65033;SDS011;51601;51.356;12.458;2023-06-14T06:08:18;8.73;;;5.38;;
65033;SDS011;51601;51.356;12.458;2023-06-14T06:12:53;8.32;;;5.32;;
65033;SDS011;51601;51.356;12.458;2023-06-14T06:17:28;10.03;;;5.50;;
65033;SDS011;51601;51.356;12.458;2023-06-14T06:22:17;9.98;;;5.45;;
65033;SDS011;51601;51.356;12.458;2023-06-14T06:26:52;8.38;;;5.32;;
65033;SDS011;51601;51.356;12.458;2023-06-14T06:31:26;10.23;;;5.20;;
65033;SDS011;51601;51.356;12.458;2023-06-14T06:36:02;8.27;;;5.13;;
65033;SDS011;51601;51.356;12.458;2023-06-14T06:40:36;8.75;;;4.97;;
65033;SDS011;51601;51.356;12.458;2023-06-14T06:45:10;7.55;;;4.35;;
65033;SDS011;51601;51.356;12.458;2023-06-14T06:49:45;8.23;;;4.80;;
65033;SDS011;51601;51.356;12.458;2023-06-14T06:54:21;8.98;;;4.47;;
65033;SDS011;51601;51.356;12.458;2023-06-14T06:58:55;7.28;;;4.60;;
65033;SDS011;51601;51.356;12.458;2023-06-14T07:03:30;9.23;;;4.67;;
65033;SDS011;51601;51.356;12.458;2023-06-14T07:08:04;8.15;;;4.50;;
65033;SDS011;51601;51.356;12.458;2023-06-14T07:12:40;7.68;;;4.50;;
65033;SDS011;51601;51.356;12.458;2023-06-14T07:17:14;8.20;;;4.37;;
65033;SDS011;51601;51.356;12.458;2023-06-14T07:21:48;8.13;;;4.38;;
65033;SDS011;51601;51.356;12.458;2023-06-14T07:26:24;8.85;;;4.10;;
65033;SDS011;51601;51.356;12.458;2023-06-14T07:31:00;8.10;;;3.90;;
65033;SDS011;51601;51.356;12.458;2023-06-14T07:35:35;8.07;;;4.40;;
65033;SDS011;51601;51.356;12.458;2023-06-14T07:40:12;6.10;;;3.88;;
65033;SDS011;51601;51.356;12.458;2023-06-14T07:44:47;7.85;;;4.10;;
65033;SDS011;51601;51.356;12.458;2023-06-14T07:49:24;8.87;;;4.50;;
65033;SDS011;51601;51.356;12.458;2023-06-14T07:53:59;9.52;;;4.50;;
65033;SDS011;51601;51.356;12.458;2023-06-14T07:58:34;8.18;;;4.25;;
65033;SDS011;51601;51.356;12.458;2023-06-14T08:03:08;7.43;;;4.87;;
65033;SDS011;51601;51.356;12.458;2023-06-14T08:07:44;7.53;;;4.47;;
65033;SDS011;51601;51.356;12.458;2023-06-14T08:12:18;7.88;;;4.63;;
65033;SDS011;51601;51.356;12.458;2023-06-14T08:16:52;9.25;;;4.30;;
65033;SDS011;51601;51.356;12.458;2023-06-14T08:21:26;7.67;;;4.23;;
65033;SDS011;51601;51.356;12.458;2023-06-14T08:26:02;7.82;;;4.18;;
65033;SDS011;51601;51.356;12.458;2023-06-14T08:30:36;8.15;;;4.22;;
65033;SDS011;51601;51.356;12.458;2023-06-14T08:35:11;9.77;;;4.40;;
65033;SDS011;51601;51.356;12.458;2023-06-14T08:39:46;9.98;;;4.50;;
65033;SDS011;51601;51.356;12.458;2023-06-14T08:44:21;8.15;;;4.18;;
65033;SDS011;51601;51.356;12.458;2023-06-14T08:48:56;7.73;;;4.33;;
65033;SDS011;51601;51.356;12.458;2023-06-14T08:53:31;6.53;;;3.90;;
65033;SDS011;51601;51.356;12.458;2023-06-14T08:58:09;8.15;;;3.60;;
65033;SDS011;51601;51.356;12.458;2023-06-14T09:02:48;6.43;;;3.60;;
65033;SDS011;51601;51.356;12.458;2023-06-14T09:07:25;6.83;;;4.07;;
65033;SDS011;51601;51.356;12.458;2023-06-14T09:11:59;6.97;;;3.33;;
65033;SDS011;51601;51.356;12.458;2023-06-14T09:16:34;6.68;;;3.22;;
65033;SDS011;51601;51.356;12.458;2023-06-14T09:21:10;6.10;;;3.33;;
65033;SDS011;51601;51.356;12.458;2023-06-14T09:25:45;6.20;;;3.00;;
65033;SDS011;51601;51.356;12.458;2023-06-14T09:30:19;7.65;;;3.40;;
65033;SDS011;51601;51.356;12.458;2023-06-14T09:34:54;6.43;;;2.80;;
65033;SDS011;51601;51.356;12.458;2023-06-14T09:39:30;5.75;;;3.10;;
65033;SDS011;51601;51.356;12.458;2023-06-14T09:44:05;7.75;;;3.13;;
65033;SDS011;51601;51.356;12.458;2023-06-14T09:48:42;6.70;;;3.25;;
65033;SDS011;51601;51.356;12.458;2023-06-14T09:53:17;5.80;;;3.10;;
65033;SDS011;51601;51.356;12.458;2023-06-14T09:57:57;6.40;;;3.20;;
65033;SDS011;51601;51.356;12.458;2023-06-14T10:02:34;6.45;;;3.05;;
65033;SDS011;51601;51.356;12.458;2023-06-14T10:07:10;6.37;;;3.10;;
65033;SDS011;51601;51.356;12.458;2023-06-14T10:11:46;6.95;;;3.00;;
65033;SDS011;51601;51.356;12.458;2023-06-14T10:16:23;6.85;;;3.45;;
65033;SDS011;51601;51.356;12.458;2023-06-14T10:21:04;6.37;;;3.57;;
65033;SDS011;51601;51.356;12.458;2023-06-14T10:25:49;6.55;;;3.70;;
65033;SDS011;51601;51.356;12.458;2023-06-14T10:30:28;6.70;;;3.50;;
65033;SDS011;51601;51.356;12.458;2023-06-14T10:35:05;6.57;;;3.10;;
65033;SDS011;51601;51.356;12.458;2023-06-14T10:39:41;5.90;;;2.97;;
65033;SDS011;51601;51.356;12.458;2023-06-14T10:49:36;5.03;;;2.58;;
65033;SDS011;51601;51.356;12.458;2023-06-14T10:54:16;6.37;;;2.50;;
65033;SDS011;51601;51.356;12.458;2023-06-14T10:58:51;5.97;;;2.45;;
65033;SDS011;51601;51.356;12.458;2023-06-14T11:03:36;5.40;;;2.80;;
65033;SDS011;51601;51.356;12.458;2023-06-14T11:08:27;6.73;;;2.70;;
65033;SDS011;51601;51.356;12.458;2023-06-14T11:13:15;6.25;;;3.10;;
65033;SDS011;51601;51.356;12.458;2023-06-14T11:17:50;6.47;;;3.08;;
65033;SDS011;51601;51.356;12.458;2023-06-14T11:22:27;5.88;;;3.20;;
65033;SDS011;51601;51.356;12.458;2023-06-14T11:27:02;6.40;;;3.07;;
65033;SDS011;51601;51.356;12.458;2023-06-14T11:31:37;6.95;;;2.95;;
65033;SDS011;51601;51.356;12.458;2023-06-14T11:36:16;5.60;;;2.65;;
65033;SDS011;51601;51.356;12.458;2023-06-14T11:40:50;4.93;;;2.37;;
65033;SDS011;51601;51.356;12.458;2023-06-14T11:45:24;7.05;;;2.58;;
65033;SDS011;51601;51.356;12.458;2023-06-14T11:50:04;6.60;;;3.25;;
65033;SDS011;51601;51.356;12.458;2023-06-14T11:54:40;6.67;;;2.90;;
65033;SDS011;51601;51.356;12.458;2023-06-14T11:59:15;6.00;;;3.20;;
65033;SDS011;51601;51.356;12.458;2023-06-14T12:03:49;6.95;;;3.30;;
65033;SDS011;51601;51.356;12.458;2023-06-14T12:08:26;6.10;;;3.03;;
65033;SDS011;51601;51.356;12.458;2023-06-14T12:13:11;5.43;;;2.67;;
65033;SDS011;51601;51.356;12.458;2023-06-14T12:17:45;7.32;;;3.30;;
65033;SDS011;51601;51.356;12.458;2023-06-14T12:22:20;5.85;;;3.20;;
65033;SDS011;51601;51.356;12.458;2023-06-14T12:26:58;5.60;;;3.03;;
65033;SDS011;51601;51.356;12.458;2023-06-14T12:31:35;7.68;;;3.42;;
65033;SDS011;51601;51.356;12.458;2023-06-14T12:36:09;8.05;;;3.80;;
65033;SDS011;51601;51.356;12.458;2023-06-14T12:41:02;8.97;;;3.70;;
65033;SDS011;51601;51.356;12.458;2023-06-14T12:45:59;8.15;;;3.33;;
65033;SDS011;51601;51.356;12.458;2023-06-14T12:50:53;7.47;;;3.30;;
65033;SDS011;51601;51.356;12.458;2023-06-14T12:55:32;7.57;;;3.37;;
65033;SDS011;51601;51.356;12.458;2023-06-14T13:00:12;6.72;;;3.40;;
65033;SDS011;51601;51.356;12.458;2023-06-14T13:04:53;7.22;;;3.08;;
65033;SDS011;51601;51.356;12.458;2023-06-14T13:09:34;6.03;;;2.70;;
65033;SDS011;51601;51.356;12.458;2023-06-14T13:14:13;7.45;;;3.15;;
65033;SDS011;51601;51.356;12.458;2023-06-14T13:19:02;7.75;;;3.40;;
65033;SDS011;51601;51.356;12.458;2023-06-14T13:23:44;6.95;;;3.35;;
65033;SDS011;51601;51.356;12.458;2023-06-14T13:28:21;7.07;;;3.40;;
65033;SDS011;51601;51.356;12.458;2023-06-14T13:33:01;8.68;;;3.70;;
65033;SDS011;51601;51.356;12.458;2023-06-14T13:37:40;8.07;;;3.83;;
65033;SDS011;51601;51.356;12.458;2023-06-14T13:42:21;8.50;;;3.80;;
65033;SDS011;51601;51.356;12.458;2023-06-14T13:47:00;7.85;;;3.63;;
65033;SDS011;51601;51.356;12.458;2023-06-14T13:51:45;7.53;;;3.88;;
65033;SDS011;51601;51.356;12.458;2023-06-14T13:56:25;9.77;;;4.10;;
65033;SDS011;51601;51.356;12.458;2023-06-14T14:01:06;7.75;;;3.80;;
65033;SDS011;51601;51.356;12.458;2023-06-14T14:05:47;7.18;;;4.05;;
65033;SDS011;51601;51.356;12.458;2023-06-14T14:10:26;7.40;;;3.63;;
65033;SDS011;51601;51.356;12.458;2023-06-14T14:15:06;7.40;;;3.63;;
65033;SDS011;51601;51.356;12.458;2023-06-14T14:19:51;8.07;;;3.80;;
65033;SDS011;51601;51.356;12.458;2023-06-14T14:24:28;6.72;;;3.60;;
65033;SDS011;51601;51.356;12.458;2023-06-14T14:29:08;7.07;;;3.43;;
65033;SDS011;51601;51.356;12.458;2023-06-14T14:33:47;7.32;;;3.60;;
65033;SDS011;51601;51.356;12.458;2023-06-14T14:38:28;6.13;;;3.30;;
65033;SDS011;51601;51.356;12.458;2023-06-14T14:43:06;6.53;;;3.20;;
65033;SDS011;51601;51.356;12.458;2023-06-14T14:47:46;7.15;;;3.58;;
65033;SDS011;51601;51.356;12.458;2023-06-14T14:52:25;8.93;;;3.85;;
65033;SDS011;51601;51.356;12.458;2023-06-14T14:57:07;8.23;;;4.00;;
65033;SDS011;51601;51.356;12.458;2023-06-14T15:01:45;8.07;;;3.70;;
65033;SDS011;51601;51.356;12.458;2023-06-14T15:06:24;6.32;;;3.83;;
65033;SDS011;51601;51.356;12.458;2023-06-14T15:11:04;6.70;;;3.60;;
65033;SDS011;51601;51.356;12.458;2023-06-14T15:15:45;6.87;;;3.40;;
65033;SDS011;51601;51.356;12.458;2023-06-14T15:20:23;9.77;;;3.83;;
65033;SDS011;51601;51.356;12.458;2023-06-14T15:25:03;6.35;;;3.20;;
65033;SDS011;51601;51.356;12.458;2023-06-14T15:29:42;6.70;;;3.23;;
65033;SDS011;51601;51.356;12.458;2023-06-14T15:34:26;7.55;;;3.50;;
65033;SDS011;51601;51.356;12.458;2023-06-14T15:39:04;7.63;;;3.70;;
65033;SDS011;51601;51.356;12.458;2023-06-14T15:43:44;6.40;;;3.50;;
65033;SDS011;51601;51.356;12.458;2023-06-14T15:48:23;7.70;;;3.60;;
65033;SDS011;51601;51.356;12.458;2023-06-14T15:53:04;8.45;;;3.80;;
65033;SDS011;51601;51.356;12.458;2023-06-14T15:57:42;8.02;;;4.20;;
65033;SDS011;51601;51.356;12.458;2023-06-14T16:02:22;7.50;;;3.80;;
65033;SDS011;51601;51.356;12.458;2023-06-14T16:07:01;7.55;;;3.72;;
65033;SDS011;51601;51.356;12.458;2023-06-14T16:11:42;7.65;;;4.15;;
65033;SDS011;51601;51.356;12.458;2023-06-14T16:16:21;9.53;;;3.83;;
65033;SDS011;51601;51.356;12.458;2023-06-14T16:21:00;7.70;;;3.20;;
65033;SDS011;51601;51.356;12.458;2023-06-14T16:25:40;8.23;;;4.20;;
65033;SDS011;51601;51.356;12.458;2023-06-14T16:30:21;8.20;;;3.88;;
65033;SDS011;51601;51.356;12.458;2023-06-14T16:34:59;9.47;;;4.23;;
65033;SDS011;51601;51.356;12.458;2023-06-14T16:39:38;7.07;;;4.20;;
65033;SDS011;51601;51.356;12.458;2023-06-14T16:44:18;6.93;;;4.00;;
65033;SDS011;51601;51.356;12.458;2023-06-14T16:48:59;7.23;;;4.30;;
65033;SDS011;51601;51.356;12.458;2023-06-14T16:53:40;8.90;;;4.18;;
65033;SDS011;51601;51.356;12.458;2023-06-14T16:58:20;6.72;;;3.90;;
65033;SDS011;51601;51.356;12.458;2023-06-14T17:02:59;9.83;;;3.80;;
65033;SDS011;51601;51.356;12.458;2023-06-14T17:07:40;8.95;;;4.00;;
65033;SDS011;51601;51.356;12.458;2023-06-14T17:12:18;7.47;;;4.10;;
65033;SDS011;51601;51.356;12.458;2023-06-14T17:16:58;7.35;;;3.90;;
65033;SDS011;51601;51.356;12.458;2023-06-14T17:21:38;8.07;;;4.93;;
65033;SDS011;51601;51.356;12.458;2023-06-14T17:26:21;6.75;;;4.03;;
65033;SDS011;51601;51.356;12.458;2023-06-14T17:31:03;7.80;;;3.65;;
65033;SDS011;51601;51.356;12.458;2023-06-14T17:35:42;8.27;;;3.77;;
65033;SDS011;51601;51.356;12.458;2023-06-14T17:40:22;6.72;;;3.70;;
65033;SDS011;51601;51.356;12.458;2023-06-14T17:45:15;7.95;;;3.90;;
65033;SDS011;51601;51.356;12.458;2023-06-14T17:49:53;8.93;;;3.70;;
65033;SDS011;51601;51.356;12.458;2023-06-14T17:54:33;7.47;;;3.38;;
65033;SDS011;51601;51.356;12.458;2023-06-14T17:59:12;7.38;;;3.60;;
65033;SDS011;51601;51.356;12.458;2023-06-14T18:03:53;7.22;;;3.90;;
65033;SDS011;51601;51.356;12.458;2023-06-14T18:08:32;6.70;;;3.40;;
65033;SDS011;51601;51.356;12.458;2023-06-14T18:13:14;6.63;;;3.00;;
65033;SDS011;51601;51.356;12.458;2023-06-14T18:17:54;5.72;;;3.15;;
65033;SDS011;51601;51.356;12.458;2023-06-14T18:22:35;7.17;;;3.83;;
65033;SDS011;51601;51.356;12.458;2023-06-14T18:27:13;7.88;;;3.33;;
65033;SDS011;51601;51.356;12.458;2023-06-14T18:31:52;6.97;;;3.67;;
65033;SDS011;51601;51.356;12.458;2023-06-14T18:36:35;7.27;;;3.80;;
65033;SDS011;51601;51.356;12.458;2023-06-14T18:41:16;6.85;;;3.53;;
65033;SDS011;51601;51.356;12.458;2023-06-14T18:45:54;9.45;;;3.90;;
65033;SDS011;51601;51.356;12.458;2023-06-14T18:50:34;7.78;;;3.88;;
65033;SDS011;51601;51.356;12.458;2023-06-14T18:55:14;9.03;;;3.90;;
65033;SDS011;51601;51.356;12.458;2023-06-14T18:59:54;9.57;;;4.65;;
65033;SDS011;51601;51.356;12.458;2023-06-14T19:04:32;8.95;;;4.40;;
65033;SDS011;51601;51.356;12.458;2023-06-14T19:09:12;7.27;;;3.80;;
65033;SDS011;51601;51.356;12.458;2023-06-14T19:13:51;8.75;;;4.10;;
65033;SDS011;51601;51.356;12.458;2023-06-14T19:18:32;6.47;;;3.60;;
65033;SDS011;51601;51.356;12.458;2023-06-14T19:23:11;8.00;;;3.87;;
65033;SDS011;51601;51.356;12.458;2023-06-14T19:27:50;8.40;;;4.88;;
65033;SDS011;51601;51.356;12.458;2023-06-14T19:32:30;7.10;;;3.80;;
65033;SDS011;51601;51.356;12.458;2023-06-14T19:37:11;8.18;;;4.05;;
65033;SDS011;51601;51.356;12.458;2023-06-14T19:41:49;9.10;;;3.90;;
65033;SDS011;51601;51.356;12.458;2023-06-14T19:46:28;8.45;;;4.25;;
65033;SDS011;51601;51.356;12.458;2023-06-14T19:51:08;8.10;;;4.53;;
65033;SDS011;51601;51.356;12.458;2023-06-14T19:55:49;7.10;;;3.97;;
65033;SDS011;51601;51.356;12.458;2023-06-14T20:00:27;9.27;;;4.20;;
65033;SDS011;51601;51.356;12.458;2023-06-14T20:05:07;8.55;;;4.90;;
65033;SDS011;51601;51.356;12.458;2023-06-14T20:09:46;11.00;;;4.50;;
65033;SDS011;51601;51.356;12.458;2023-06-14T20:14:27;8.48;;;4.72;;
65033;SDS011;51601;51.356;12.458;2023-06-14T20:19:05;9.60;;;4.90;;
65033;SDS011;51601;51.356;12.458;2023-06-14T20:23:45;9.93;;;4.43;;
65033;SDS011;51601;51.356;12.458;2023-06-14T20:28:24;8.17;;;4.43;;
65033;SDS011;51601;51.356;12.458;2023-06-14T20:33:07;8.40;;;4.25;;
65033;SDS011;51601;51.356;12.458;2023-06-14T20:37:47;8.43;;;4.75;;
65033;SDS011;51601;51.356;12.458;2023-06-14T20:42:26;8.63;;;5.00;;
65033;SDS011;51601;51.356;12.458;2023-06-14T20:47:06;10.25;;;5.05;;
65033;SDS011;51601;51.356;12.458;2023-06-14T20:51:50;8.25;;;4.75;;
65033;SDS011;51601;51.356;12.458;2023-06-14T20:56:28;8.57;;;4.57;;
65033;SDS011;51601;51.356;12.458;2023-06-14T21:01:08;10.18;;;5.22;;
65033;SDS011;51601;51.356;12.458;2023-06-14T21:05:47;11.38;;;6.57;;
65033;SDS011;51601;51.356;12.458;2023-06-14T21:10:28;11.48;;;6.95;;
65033;SDS011;51601;51.356;12.458;2023-06-14T21:15:06;11.57;;;5.90;;
65033;SDS011;51601;51.356;12.458;2023-06-14T21:19:46;11.05;;;5.78;;
65033;SDS011;51601;51.356;12.458;2023-06-14T21:24:25;8.25;;;4.53;;
65033;SDS011;51601;51.356;12.458;2023-06-14T21:29:07;8.73;;;4.77;;
65033;SDS011;51601;51.356;12.458;2023-06-14T21:33:44;9.35;;;4.40;;
65033;SDS011;51601;51.356;12.458;2023-06-14T21:38:24;10.40;;;4.97;;
65033;SDS011;51601;51.356;12.458;2023-06-14T21:43:03;8.73;;;4.40;;
65033;SDS011;51601;51.356;12.458;2023-06-14T21:47:45;8.05;;;4.05;;
65033;SDS011;51601;51.356;12.458;2023-06-14T21:52:23;11.00;;;4.35;;
65033;SDS011;51601;51.356;12.458;2023-06-14T21:57:02;8.85;;;4.07;;
65033;SDS011;51601;51.356;12.458;2023-06-14T22:01:42;8.80;;;4.67;;
65033;SDS011;51601;51.356;12.458;2023-06-14T22:06:23;9.85;;;4.28;;
65033;SDS011;51601;51.356;12.458;2023-06-14T22:11:01;8.48;;;4.20;;
65033;SDS011;51601;51.356;12.458;2023-06-14T22:15:44;8.73;;;4.60;;
65033;SDS011;51601;51.356;12.458;2023-06-14T22:20:23;9.10;;;4.30;;
65033;SDS011;51601;51.356;12.458;2023-06-14T22:25:07;7.82;;;4.88;;
65033;SDS011;51601;51.356;12.458;2023-06-14T22:29:45;8.73;;;4.70;;
65033;SDS011;51601;51.356;12.458;2023-06-14T22:34:25;8.23;;;4.78;;
65033;SDS011;51601;51.356;12.458;2023-06-14T22:39:04;9.35;;;4.85;;
65033;SDS011;51601;51.356;12.458;2023-06-14T22:43:45;9.18;;;4.95;;
65033;SDS011;51601;51.356;12.458;2023-06-14T22:48:24;10.37;;;5.30;;
65033;SDS011;51601;51.356;12.458;2023-06-14T22:53:03;9.02;;;4.93;;
65033;SDS011;51601;51.356;12.458;2023-06-14T22:57:43;8.43;;;4.88;;
65033;SDS011;51601;51.356;12.458;2023-06-14T23:02:24;8.83;;;5.33;;
65033;SDS011;51601;51.356;12.458;2023-06-14T23:07:02;9.32;;;4.63;;
65033;SDS011;51601;51.356;12.458;2023-06-14T23:11:41;8.55;;;4.80;;
65033;SDS011;51601;51.356;12.458;2023-06-14T23:16:21;8.40;;;4.90;;
65033;SDS011;51601;51.356;12.458;2023-06-14T23:21:02;10.00;;;5.05;;
65033;SDS011;51601;51.356;12.458;2023-06-14T23:25:43;8.73;;;5.00;;
65033;SDS011;51601;51.356;12.458;2023-06-14T23:30:23;9.73;;;5.25;;
65033;SDS011;51601;51.356;12.458;2023-06-14T23:35:02;8.93;;;5.00;;
65033;SDS011;51601;51.356;12.458;2023-06-14T23:39:43;10.52;;;5.07;;
65033;SDS011;51601;51.356;12.458;2023-06-14T23:44:24;8.43;;;4.80;;
65033;SDS011;51601;51.356;12.458;2023-06-14T23:49:04;7.97;;;4.70;;
65033;SDS011;51601;51.356;12.458;2023-06-14T23:53:44;8.20;;;4.38;;
65033;SDS011;51601;51.356;12.458;2023-06-14T23:58:24;7.88;;;4.75;;
